Time;durP1;ratioP1;P1;durP2;ratioP2;P2;SDS_P1;SDS_P2;PMS_P1;PMS_P2;Temp;Humidity;BMP_temperature;BMP_pressure;BME280_temperature;BME280_humidity;BME280_pressure;Samples;Min_cycle;Max_cycle;Signal;HPM_P1;HPM_P2
2022/11/21 00:00:31;;;;;;;24.40;6.80;;;;;;;;;;5103925;27;20198;-83
2022/11/21 00:02:58;;;;;;;22.10;6.37;;;;;;;;;;5102758;28;20340;-83
2022/11/21 00:05:26;;;;;;;23.00;5.93;;;;;;;;;;5106912;28;20193;-83
2022/11/21 00:07:55;;;;;;;20.73;5.43;;;;;;;;;;5105987;28;20227;-83
2022/11/21 00:10:22;;;;;;;22.23;5.80;;;;;;;;;;5112298;28;20301;-83
2022/11/21 00:12:54;;;;;;;24.77;5.23;;;;;;;;;;5100151;28;20281;-83
2022/11/21 00:15:22;;;;;;;26.07;5.90;;;;;;;;;;5104049;28;20218;-83
2022/11/21 00:17:49;;;;;;;25.43;5.83;;;;;;;;;;5101268;28;20282;-83
2022/11/21 00:20:17;;;;;;;20.83;5.83;;;;;;;;;;5102414;28;20225;-83
2022/11/21 00:22:44;;;;;;;20.37;5.30;;;;;;;;;;5106474;28;20637;-83
2022/11/21 00:25:13;;;;;;;24.37;5.60;;;;;;;;;;5106585;28;20268;-83
2022/11/21 00:27:40;;;;;;;23.30;5.40;;;;;;;;;;5113597;28;20261;-83
2022/11/21 00:30:09;;;;;;;20.97;5.30;;;;;;;;;;5096420;28;20337;-83
2022/11/21 00:32:36;;;;;;;26.97;5.70;;;;;;;;;;5105297;28;20285;-82
2022/11/21 00:35:03;;;;;;;22.50;5.73;;;;;;;;;;5107468;28;20219;-82
2022/11/21 00:37:32;;;;;;;17.67;5.50;;;;;;;;;;5094168;28;20740;-83
2022/11/21 00:39:59;;;;;;;24.77;5.40;;;;;;;;;;5111783;28;20289;-83
2022/11/21 00:42:28;;;;;;;25.13;5.20;;;;;;;;;;5114552;28;20275;-83
2022/11/21 00:44:55;;;;;;;23.33;5.33;;;;;;;;;;5103447;28;20230;-83
2022/11/21 00:47:23;;;;;;;23.73;5.13;;;;;;;;;;5094340;28;20238;-83
2022/11/21 00:49:50;;;;;;;23.67;5.37;;;;;;;;;;5103680;28;20289;-83
2022/11/21 00:52:17;;;;;;;23.50;4.97;;;;;;;;;;5103161;28;20229;-83
2022/11/21 00:54:45;;;;;;;16.90;4.27;;;;;;;;;;5108705;28;20300;-82
2022/11/21 00:57:12;;;;;;;24.97;5.00;;;;;;;;;;5102715;28;20204;-82
2022/11/21 00:59:40;;;;;;;26.13;4.70;;;;;;;;;;5096459;28;20290;-83
2022/11/21 01:02:09;;;;;;;19.60;5.23;;;;;;;;;;5110068;28;20285;-83
2022/11/21 01:04:36;;;;;;;20.47;4.40;;;;;;;;;;5099563;28;20194;-82
2022/11/21 01:07:04;;;;;;;25.20;5.77;;;;;;;;;;5106538;28;20280;-82
2022/11/21 01:09:31;;;;;;;20.53;4.63;;;;;;;;;;5101816;28;20225;-82
2022/11/21 01:11:58;;;;;;;23.87;4.73;;;;;;;;;;5101611;28;20841;-82
2022/11/21 01:14:26;;;;;;;23.20;4.67;;;;;;;;;;5102255;28;20295;-82
2022/11/21 01:16:54;;;;;;;19.73;5.00;;;;;;;;;;5099629;28;20281;-82
2022/11/21 01:19:21;;;;;;;22.23;4.70;;;;;;;;;;5102935;28;20237;-82
2022/11/21 01:21:49;;;;;;;19.30;4.60;;;;;;;;;;5099884;28;20267;-82
2022/11/21 01:24:16;;;;;;;23.03;4.97;;;;;;;;;;5109358;28;20228;-82
2022/11/21 01:26:43;;;;;;;24.30;4.60;;;;;;;;;;5101008;28;20273;-82
2022/11/21 01:29:10;;;;;;;18.40;4.80;;;;;;;;;;5100031;28;20249;-83
2022/11/21 01:31:38;;;;;;;23.20;4.80;;;;;;;;;;5104835;28;20225;-83
2022/11/21 01:34:07;;;;;;;20.50;4.00;;;;;;;;;;5099873;28;20714;-82
2022/11/21 01:36:35;;;;;;;20.03;4.27;;;;;;;;;;5104226;28;20240;-83
2022/11/21 01:39:03;;;;;;;18.13;4.80;;;;;;;;;;5101711;28;20222;-83
2022/11/21 01:41:32;;;;;;;24.20;4.40;;;;;;;;;;5111228;28;20198;-82
2022/11/21 01:44:00;;;;;;;23.07;4.87;;;;;;;;;;5099967;28;20252;-83
2022/11/21 01:46:27;;;;;;;23.80;4.70;;;;;;;;;;5100342;28;20255;-82
2022/11/21 01:48:56;;;;;;;22.37;4.70;;;;;;;;;;5103450;28;20289;-82
2022/11/21 01:51:26;;;;;;;27.10;5.87;;;;;;;;;;5098021;28;20320;-82
2022/11/21 01:53:55;;;;;;;21.17;4.80;;;;;;;;;;5109277;28;20319;-83
2022/11/21 01:56:23;;;;;;;24.73;4.80;;;;;;;;;;5088344;28;20288;-83
2022/11/21 01:58:51;;;;;;;21.23;4.37;;;;;;;;;;5110004;28;20229;-82
2022/11/21 02:01:18;;;;;;;20.10;4.23;;;;;;;;;;5092736;28;20738;-82
2022/11/21 02:03:47;;;;;;;20.20;4.57;;;;;;;;;;5101752;28;20226;-82
2022/11/21 02:06:14;;;;;;;25.93;4.23;;;;;;;;;;5103424;28;20749;-82
2022/11/21 02:08:43;;;;;;;27.13;4.87;;;;;;;;;;5100309;28;20284;-83
2022/11/21 02:11:15;;;;;;;17.87;4.20;;;;;;;;;;5090833;28;20316;-82
2022/11/21 02:13:42;;;;;;;19.90;5.03;;;;;;;;;;5111180;28;20685;-83
2022/11/21 02:16:09;;;;;;;23.13;5.60;;;;;;;;;;5113154;28;20198;-82
2022/11/21 02:18:36;;;;;;;24.13;5.30;;;;;;;;;;5097719;28;20204;-82
2022/11/21 02:21:13;;;;;;;20.83;4.30;;;;;;;;;;5101532;28;20225;-82
2022/11/21 02:23:42;;;;;;;21.17;5.27;;;;;;;;;;5095930;28;20277;-82
2022/11/21 02:26:14;;;;;;;21.00;5.23;;;;;;;;;;5094011;28;20285;-82
2022/11/21 02:28:42;;;;;;;23.07;4.50;;;;;;;;;;5096460;28;20690;-83
2022/11/21 02:31:09;;;;;;;18.67;4.60;;;;;;;;;;5106522;28;20237;-82
2022/11/21 02:33:36;;;;;;;21.57;5.03;;;;;;;;;;5091809;28;20285;-82
2022/11/21 02:36:04;;;;;;;17.33;4.53;;;;;;;;;;5094030;28;20731;-82
2022/11/21 02:38:32;;;;;;;24.23;4.60;;;;;;;;;;5097906;28;20285;-82
2022/11/21 02:41:02;;;;;;;27.07;5.10;;;;;;;;;;5079805;28;20285;-82
2022/11/21 02:43:33;;;;;;;19.97;4.70;;;;;;;;;;5092388;28;20290;-82
2022/11/21 02:46:00;;;;;;;20.13;5.30;;;;;;;;;;5099109;28;20193;-82
2022/11/21 02:48:27;;;;;;;27.73;5.17;;;;;;;;;;5100292;28;20285;-82
2022/11/21 02:50:55;;;;;;;20.40;5.00;;;;;;;;;;5095040;28;20656;-82
2022/11/21 02:53:22;;;;;;;22.93;5.80;;;;;;;;;;5101766;28;20198;-82
2022/11/21 02:55:49;;;;;;;21.23;4.93;;;;;;;;;;5111744;28;20260;-83
2022/11/21 02:58:17;;;;;;;15.70;4.50;;;;;;;;;;5108183;28;20280;-83
2022/11/21 03:00:45;;;;;;;20.33;5.03;;;;;;;;;;5113531;28;20202;-83
2022/11/21 03:03:13;;;;;;;21.83;5.10;;;;;;;;;;5099088;28;20247;-82
2022/11/21 03:05:40;;;;;;;23.80;5.53;;;;;;;;;;5099624;28;20198;-82
2022/11/21 03:08:07;;;;;;;19.77;5.70;;;;;;;;;;5110604;28;20277;-82
2022/11/21 03:10:36;;;;;;;21.23;5.87;;;;;;;;;;5106562;28;20232;-82
2022/11/21 03:13:04;;;;;;;18.97;5.40;;;;;;;;;;5101604;28;20276;-82
2022/11/21 03:15:32;;;;;;;25.53;6.00;;;;;;;;;;5106672;28;20247;-82
2022/11/21 03:18:01;;;;;;;21.57;7.10;;;;;;;;;;5104592;28;20218;-82
2022/11/21 03:20:29;;;;;;;26.23;7.20;;;;;;;;;;5112226;28;20318;-82
2022/11/21 03:22:56;;;;;;;18.70;6.83;;;;;;;;;;5105813;28;20707;-82
2022/11/21 03:25:23;;;;;;;24.30;6.33;;;;;;;;;;5112550;28;20217;-82
2022/11/21 03:27:52;;;;;;;18.77;6.30;;;;;;;;;;5097780;28;20293;-83
2022/11/21 03:30:19;;;;;;;22.27;6.00;;;;;;;;;;5104104;28;20764;-82
2022/11/21 03:32:47;;;;;;;24.90;6.57;;;;;;;;;;5104418;28;20234;-82
2022/11/21 03:35:16;;;;;;;21.07;5.67;;;;;;;;;;5106354;28;20304;-82
2022/11/21 03:37:43;;;;;;;31.37;5.90;;;;;;;;;;5096148;28;20207;-82
2022/11/21 03:40:11;;;;;;;23.70;5.87;;;;;;;;;;5112557;28;20579;-82
2022/11/21 03:42:38;;;;;;;23.30;4.77;;;;;;;;;;5101870;28;20193;-82
2022/11/21 03:45:06;;;;;;;19.70;5.63;;;;;;;;;;5099630;28;20198;-82
2022/11/21 03:47:34;;;;;;;19.27;5.00;;;;;;;;;;5106184;28;20282;-82
2022/11/21 03:50:01;;;;;;;17.17;4.50;;;;;;;;;;5106759;28;20193;-83
2022/11/21 03:52:30;;;;;;;24.60;4.90;;;;;;;;;;5103835;27;20254;-83
2022/11/21 03:54:57;;;;;;;18.90;4.83;;;;;;;;;;5102954;28;20303;-83
2022/11/21 03:57:24;;;;;;;19.43;4.43;;;;;;;;;;5104418;28;20307;-83
2022/11/21 03:59:51;;;;;;;15.77;3.83;;;;;;;;;;5109817;28;20225;-82
2022/11/21 04:02:19;;;;;;;19.90;4.77;;;;;;;;;;5097275;28;20237;-83
2022/11/21 04:04:46;;;;;;;20.43;4.60;;;;;;;;;;5096290;28;20232;-82
2022/11/21 04:07:13;;;;;;;18.30;4.50;;;;;;;;;;5094695;28;20711;-82
2022/11/21 04:09:42;;;;;;;20.60;5.10;;;;;;;;;;5113245;28;20279;-82
2022/11/21 04:12:09;;;;;;;18.57;4.57;;;;;;;;;;5104962;28;20228;-83
2022/11/21 04:14:36;;;;;;;18.77;4.27;;;;;;;;;;5102642;28;20219;-83
2022/11/21 04:17:03;;;;;;;17.63;4.20;;;;;;;;;;5103775;28;20285;-83
2022/11/21 04:19:30;;;;;;;15.83;4.20;;;;;;;;;;5103120;28;20287;-82
2022/11/21 04:21:58;;;;;;;20.73;4.50;;;;;;;;;;5103405;28;20195;-82
2022/11/21 04:24:25;;;;;;;21.30;4.13;;;;;;;;;;5103246;28;20226;-83
2022/11/21 04:26:54;;;;;;;13.93;3.63;;;;;;;;;;5105177;28;20248;-83
2022/11/21 04:29:21;;;;;;;22.43;4.70;;;;;;;;;;5100118;28;20214;-82
2022/11/21 04:31:49;;;;;;;21.03;4.60;;;;;;;;;;5109015;28;20228;-85
2022/11/21 04:34:16;;;;;;;21.47;4.17;;;;;;;;;;5103812;28;20277;-82
2022/11/21 04:36:43;;;;;;;19.53;4.07;;;;;;;;;;5094501;28;20230;-83
2022/11/21 04:39:10;;;;;;;18.33;4.03;;;;;;;;;;5102406;28;20198;-83
2022/11/21 04:41:37;;;;;;;19.17;4.10;;;;;;;;;;5101531;28;20201;-83
2022/11/21 04:44:06;;;;;;;22.53;4.53;;;;;;;;;;5104544;28;20289;-82
2022/11/21 04:46:33;;;;;;;22.13;4.50;;;;;;;;;;5111385;28;20278;-82
2022/11/21 04:49:01;;;;;;;18.37;3.80;;;;;;;;;;5106316;28;20278;-83
2022/11/21 04:51:28;;;;;;;18.93;3.77;;;;;;;;;;5106114;28;20221;-83
2022/11/21 04:53:55;;;;;;;21.83;4.03;;;;;;;;;;5099235;28;20289;-82
2022/11/21 04:56:22;;;;;;;23.47;4.00;;;;;;;;;;5105264;28;20255;-83
2022/11/21 04:58:52;;;;;;;24.83;4.03;;;;;;;;;;5101983;28;20235;-83
2022/11/21 05:01:21;;;;;;;21.47;4.53;;;;;;;;;;5100815;28;20220;-82
2022/11/21 05:03:49;;;;;;;13.53;3.33;;;;;;;;;;5110112;28;20221;-82
2022/11/21 05:06:16;;;;;;;19.60;3.77;;;;;;;;;;5097339;28;20288;-83
2022/11/21 05:08:43;;;;;;;19.47;4.10;;;;;;;;;;5108552;28;20237;-83
2022/11/21 05:13:56;;;;;;;18.53;3.83;;;;;;;;;;5102631;28;20196;-83
2022/11/21 05:16:24;;;;;;;19.80;3.73;;;;;;;;;;5093933;28;20213;-82
2022/11/21 05:18:52;;;;;;;19.70;3.90;;;;;;;;;;5099909;28;20245;-83
2022/11/21 05:21:19;;;;;;;19.97;3.83;;;;;;;;;;5105822;28;20282;-83
2022/11/21 05:23:46;;;;;;;17.70;2.90;;;;;;;;;;5100907;28;20207;-82
2022/11/21 05:26:13;;;;;;;22.53;4.63;;;;;;;;;;5105554;28;20914;-81
2022/11/21 05:28:41;;;;;;;17.57;3.70;;;;;;;;;;5094088;28;20282;-82
2022/11/21 05:31:08;;;;;;;20.63;4.07;;;;;;;;;;5101167;28;20194;-82
2022/11/21 05:33:36;;;;;;;20.67;3.70;;;;;;;;;;5102058;28;20284;-82
2022/11/21 05:36:04;;;;;;;12.33;3.17;;;;;;;;;;5108608;28;20251;-82
2022/11/21 05:38:31;;;;;;;18.43;3.87;;;;;;;;;;5106207;28;20230;-82
2022/11/21 05:40:58;;;;;;;24.23;3.67;;;;;;;;;;5107170;28;20281;-82
2022/11/21 05:46:10;;;;;;;20.73;4.03;;;;;;;;;;5105906;28;20201;-82
2022/11/21 05:48:39;;;;;;;21.23;4.03;;;;;;;;;;5103797;28;20619;-82
2022/11/21 05:51:06;;;;;;;17.60;3.37;;;;;;;;;;5097503;28;20292;-80
2022/11/21 05:53:34;;;;;;;19.37;3.77;;;;;;;;;;5109187;28;20242;-82
2022/11/21 05:56:03;;;;;;;21.43;3.57;;;;;;;;;;5097597;28;20705;-82
2022/11/21 05:58:30;;;;;;;19.90;4.30;;;;;;;;;;5112342;28;20201;-82
2022/11/21 06:00:58;;;;;;;14.93;3.27;;;;;;;;;;5113574;28;20204;-82
2022/11/21 06:03:27;;;;;;;16.97;3.40;;;;;;;;;;5113996;28;20287;-82
2022/11/21 06:06:00;;;;;;;20.60;3.57;;;;;;;;;;5113154;28;20242;-82
2022/11/21 06:08:27;;;;;;;26.37;4.13;;;;;;;;;;5101234;27;20205;-82
2022/11/21 06:10:55;;;;;;;19.93;3.70;;;;;;;;;;5092588;28;20263;-82
2022/11/21 06:13:22;;;;;;;16.70;3.10;;;;;;;;;;5093927;28;20277;-83
2022/11/21 06:15:51;;;;;;;21.07;4.10;;;;;;;;;;5093573;28;20225;-83
2022/11/21 06:18:18;;;;;;;24.43;3.93;;;;;;;;;;5113538;28;20625;-84
2022/11/21 06:20:46;;;;;;;19.83;4.90;;;;;;;;;;5112444;28;20292;-85
2022/11/21 06:23:14;;;;;;;23.10;3.60;;;;;;;;;;5112759;28;20236;-83
2022/11/21 06:25:42;;;;;;;25.63;4.10;;;;;;;;;;5113632;28;20312;-83
2022/11/21 06:28:09;;;;;;;15.83;3.10;;;;;;;;;;5112308;28;20302;-83
2022/11/21 06:30:37;;;;;;;23.50;4.30;;;;;;;;;;5099493;28;20261;-82
2022/11/21 06:33:05;;;;;;;17.77;3.50;;;;;;;;;;5098083;28;20242;-80
2022/11/21 06:35:33;;;;;;;15.00;3.13;;;;;;;;;;5097677;28;20250;-82
2022/11/21 06:38:00;;;;;;;18.13;3.40;;;;;;;;;;5112663;28;20283;-84
2022/11/21 06:40:28;;;;;;;17.80;3.40;;;;;;;;;;5098045;28;20278;-83
2022/11/21 06:42:57;;;;;;;17.47;3.23;;;;;;;;;;5112170;28;20233;-82
2022/11/21 06:45:26;;;;;;;19.40;4.57;;;;;;;;;;5113180;28;20225;-87
2022/11/21 06:47:53;;;;;;;14.20;3.50;;;;;;;;;;5113285;28;20281;-84
2022/11/21 06:50:21;;;;;;;20.33;3.50;;;;;;;;;;5111404;28;20239;-85
2022/11/21 06:52:48;;;;;;;15.93;3.63;;;;;;;;;;5109167;28;20212;-85
2022/11/21 06:55:15;;;;;;;23.40;4.20;;;;;;;;;;5092089;28;20197;-85
2022/11/21 06:57:44;;;;;;;19.17;3.63;;;;;;;;;;5097061;28;20285;-85
2022/11/21 07:00:12;;;;;;;21.43;3.47;;;;;;;;;;5112773;28;20239;-84
2022/11/21 07:02:39;;;;;;;17.40;3.20;;;;;;;;;;5112897;28;20287;-85
2022/11/21 07:05:07;;;;;;;12.47;2.67;;;;;;;;;;5107957;28;20255;-84
2022/11/21 07:07:34;;;;;;;19.13;3.63;;;;;;;;;;5091999;28;20289;-84
2022/11/21 07:10:01;;;;;;;12.67;2.30;;;;;;;;;;5092036;28;20293;-85
2022/11/21 07:15:15;;;;;;;19.30;3.63;;;;;;;;;;5112511;28;20210;-85
2022/11/21 07:17:42;;;;;;;21.90;3.60;;;;;;;;;;5112843;28;20728;-85
2022/11/21 07:20:11;;;;;;;10.27;2.73;;;;;;;;;;5104553;28;20235;-85
2022/11/21 07:22:38;;;;;;;20.70;3.80;;;;;;;;;;5091189;28;20204;-84
2022/11/21 07:25:05;;;;;;;18.80;3.33;;;;;;;;;;5092525;28;20285;-85
2022/11/21 07:27:36;;;;;;;15.90;3.27;;;;;;;;;;5092299;28;20292;-85
2022/11/21 07:30:03;;;;;;;16.87;2.83;;;;;;;;;;5083256;28;20309;-85
2022/11/21 07:32:32;;;;;;;15.90;3.03;;;;;;;;;;5089385;28;20279;-85
2022/11/21 07:35:02;;;;;;;14.20;3.20;;;;;;;;;;5112385;28;20233;-85
2022/11/21 07:37:29;;;;;;;14.20;3.20;;;;;;;;;;5094404;28;20221;-86
2022/11/21 07:39:56;;;;;;;13.87;2.73;;;;;;;;;;5095543;28;20228;-86
2022/11/21 07:42:23;;;;;;;18.60;3.00;;;;;;;;;;5102201;28;20225;-85
2022/11/21 07:44:51;;;;;;;12.80;2.80;;;;;;;;;;5116985;28;20224;-86
2022/11/21 07:47:18;;;;;;;21.50;3.33;;;;;;;;;;5116277;28;20286;-85
2022/11/21 07:49:46;;;;;;;13.00;2.63;;;;;;;;;;5116187;28;20309;-84
2022/11/21 07:52:14;;;;;;;16.47;2.40;;;;;;;;;;5115937;28;20207;-85
2022/11/21 07:54:41;;;;;;;18.33;3.67;;;;;;;;;;5107670;28;20279;-85
2022/11/21 07:57:08;;;;;;;15.87;3.37;;;;;;;;;;5075275;28;20273;-85
2022/11/21 07:59:36;;;;;;;15.17;2.57;;;;;;;;;;5075187;28;20199;-85
2022/11/21 08:02:03;;;;;;;15.13;3.80;;;;;;;;;;5075154;28;20199;-84
2022/11/21 08:04:30;;;;;;;21.83;4.07;;;;;;;;;;5075335;28;20230;-84
2022/11/21 08:06:59;;;;;;;15.67;3.30;;;;;;;;;;5074780;28;20244;-85
2022/11/21 08:09:28;;;;;;;24.10;3.17;;;;;;;;;;5094082;28;20664;-85
2022/11/21 08:11:56;;;;;;;18.50;3.13;;;;;;;;;;5115264;28;20240;-85
2022/11/21 08:14:23;;;;;;;16.37;3.40;;;;;;;;;;5115913;28;20224;-85
2022/11/21 08:16:52;;;;;;;15.20;3.17;;;;;;;;;;5115524;28;20257;-84
2022/11/21 08:19:19;;;;;;;13.60;3.10;;;;;;;;;;5116048;28;20205;-85
2022/11/21 08:21:46;;;;;;;18.53;3.20;;;;;;;;;;5101857;28;20286;-85
2022/11/21 08:24:16;;;;;;;14.67;2.87;;;;;;;;;;5095145;28;20220;-85
2022/11/21 08:26:47;;;;;;;17.93;3.17;;;;;;;;;;5094720;28;20233;-86
2022/11/21 08:29:15;;;;;;;16.77;3.20;;;;;;;;;;5102269;28;20230;-85
2022/11/21 08:31:42;;;;;;;17.03;3.17;;;;;;;;;;5092711;28;20288;-85
2022/11/21 08:34:10;;;;;;;13.27;3.00;;;;;;;;;;5110614;28;20710;-85
2022/11/21 08:36:37;;;;;;;11.03;2.53;;;;;;;;;;5103248;28;20217;-85
2022/11/21 08:39:04;;;;;;;21.33;3.50;;;;;;;;;;5099300;28;20289;-85
2022/11/21 08:44:18;;;;;;;17.33;2.73;;;;;;;;;;5094307;28;20671;-85
2022/11/21 08:46:45;;;;;;;17.90;3.40;;;;;;;;;;5094899;28;20298;-86
2022/11/21 08:49:12;;;;;;;13.43;2.60;;;;;;;;;;5094445;28;20203;-86
2022/11/21 08:51:39;;;;;;;19.07;3.27;;;;;;;;;;5093817;28;20683;-87
2022/11/21 08:54:08;;;;;;;13.47;3.30;;;;;;;;;;5094671;28;20281;-86
2022/11/21 08:56:37;;;;;;;17.90;3.77;;;;;;;;;;5113576;28;20224;-86
2022/11/21 08:59:04;;;;;;;16.03;3.70;;;;;;;;;;5115179;28;20234;-87
2022/11/21 09:01:31;;;;;;;17.23;3.00;;;;;;;;;;5078956;28;20229;-87
2022/11/21 09:03:58;;;;;;;16.53;3.73;;;;;;;;;;5092244;28;20281;-87
2022/11/21 09:06:26;;;;;;;14.30;3.23;;;;;;;;;;5105170;28;20186;-86
2022/11/21 09:08:53;;;;;;;17.53;3.30;;;;;;;;;;5094516;28;20602;-86
2022/11/21 09:11:20;;;;;;;17.20;3.20;;;;;;;;;;5092421;28;20235;-86
2022/11/21 09:18:01;;;;;;;13.77;3.13;;;;;;;;;;5094380;28;20237;-86
2022/11/21 09:19:21;;;;;;;13.97;2.73;;;;;;;;;;5096430;28;20239;-85
2022/11/21 09:21:49;;;;;;;14.83;2.73;;;;;;;;;;5093732;28;20237;-86
2022/11/21 09:24:17;;;;;;;14.43;2.83;;;;;;;;;;5093430;28;20207;-84
2022/11/21 09:26:44;;;;;;;10.87;2.57;;;;;;;;;;5073319;28;20288;-85
2022/11/21 09:29:13;;;;;;;13.33;2.70;;;;;;;;;;5073749;28;20335;-86
2022/11/21 09:31:41;;;;;;;14.40;3.10;;;;;;;;;;5073148;28;20209;-85
2022/11/21 09:34:09;;;;;;;11.20;2.47;;;;;;;;;;5074042;28;20203;-85
2022/11/21 09:36:36;;;;;;;12.40;2.93;;;;;;;;;;5111891;28;20246;-85
2022/11/21 09:39:03;;;;;;;10.77;2.77;;;;;;;;;;5113532;28;20200;-85
2022/11/21 09:44:24;;;;;;;11.40;3.43;;;;;;;;;;5114206;28;20374;-85
2022/11/21 09:46:56;;;;;;;4.43;1.80;;;;;;;;;;5113182;28;20221;-85
2022/11/21 09:49:25;;;;;;;13.23;2.60;;;;;;;;;;5114056;28;20284;-85
2022/11/21 09:51:53;;;;;;;9.00;2.63;;;;;;;;;;5114154;28;20231;-86
2022/11/21 09:54:25;;;;;;;7.53;2.43;;;;;;;;;;5113115;28;20216;-85
2022/11/21 09:57:06;;;;;;;10.17;2.10;;;;;;;;;;5093157;28;20225;-85
2022/11/21 09:59:35;;;;;;;10.73;2.07;;;;;;;;;;5093481;28;20642;-85
2022/11/21 10:02:04;;;;;;;9.33;2.40;;;;;;;;;;5093575;28;20202;-86
2022/11/21 10:04:31;;;;;;;6.80;2.10;;;;;;;;;;5093419;28;20202;-86
2022/11/21 10:07:02;;;;;;;5.33;2.30;;;;;;;;;;5095093;28;20272;-86
2022/11/21 10:09:38;;;;;;;5.77;2.27;;;;;;;;;;5093602;28;20287;-85
2022/11/21 10:14:58;;;;;;;6.30;2.00;;;;;;;;;;5092759;28;20197;-85
2022/11/21 10:17:30;;;;;;;7.47;2.30;;;;;;;;;;5093274;28;20308;-86
2022/11/21 10:20:10;;;;;;;9.23;2.30;;;;;;;;;;5093002;28;20281;-85
2022/11/21 10:22:55;;;;;;;4.33;1.80;;;;;;;;;;5095893;28;20569;-85
2022/11/21 10:25:24;;;;;;;8.40;2.13;;;;;;;;;;5104466;28;20210;-86
2022/11/21 10:27:54;;;;;;;7.50;2.40;;;;;;;;;;5092921;28;20660;-85
2022/11/21 10:30:23;;;;;;;6.57;2.23;;;;;;;;;;5092875;28;20254;-86
2022/11/21 10:32:53;;;;;;;6.27;2.53;;;;;;;;;;5092746;28;20305;-85
2022/11/21 10:35:22;;;;;;;5.27;2.40;;;;;;;;;;5106689;28;20258;-86
2022/11/21 10:37:52;;;;;;;5.50;2.50;;;;;;;;;;5103946;28;20244;-85
2022/11/21 10:40:34;;;;;;;6.30;2.53;;;;;;;;;;5111587;28;20228;-85
2022/11/21 10:45:15;;;;;;;6.73;2.37;;;;;;;;;;5089866;28;20608;-85
2022/11/21 10:45:53;;;;;;;4.03;2.33;;;;;;;;;;5092349;28;20202;-86
2022/11/21 10:48:20;;;;;;;5.47;2.63;;;;;;;;;;5092776;28;20240;-85
2022/11/21 10:50:54;;;;;;;5.10;2.17;;;;;;;;;;5101901;28;20691;-85
2022/11/21 10:56:09;;;;;;;4.17;1.83;;;;;;;;;;5112358;28;20200;-85
2022/11/21 10:58:41;;;;;;;3.80;2.20;;;;;;;;;;5109494;28;20237;-86
2022/11/21 11:01:20;;;;;;;4.60;1.87;;;;;;;;;;5092945;28;20206;-85
2022/11/21 11:03:48;;;;;;;3.00;1.97;;;;;;;;;;5113391;28;20252;-85
2022/11/21 11:06:28;;;;;;;5.13;1.90;;;;;;;;;;5113062;28;20611;-84
2022/11/21 11:08:55;;;;;;;4.60;2.27;;;;;;;;;;5110229;28;20229;-85
2022/11/21 11:11:24;;;;;;;4.63;2.60;;;;;;;;;;5091960;28;20278;-85
2022/11/21 11:13:57;;;;;;;5.87;4.30;;;;;;;;;;5093400;28;20293;-85
2022/11/21 11:16:27;;;;;;;4.83;2.53;;;;;;;;;;5105980;28;20725;-85
2022/11/21 11:18:59;;;;;;;4.23;2.10;;;;;;;;;;5096045;28;20271;-86
2022/11/21 11:21:27;;;;;;;4.40;2.10;;;;;;;;;;5109720;28;20229;-86
2022/11/21 11:23:55;;;;;;;4.27;2.10;;;;;;;;;;5097434;28;20206;-85
2022/11/21 11:26:27;;;;;;;5.83;2.93;;;;;;;;;;5096249;28;20236;-85
2022/11/21 11:28:59;;;;;;;8.23;2.90;;;;;;;;;;5095585;28;20225;-84
2022/11/21 11:31:40;;;;;;;9.13;2.83;;;;;;;;;;5095242;28;20615;-84
2022/11/21 11:34:12;;;;;;;9.57;3.30;;;;;;;;;;5109568;28;20236;-84
2022/11/21 11:36:44;;;;;;;10.40;2.93;;;;;;;;;;5106478;28;20233;-86
2022/11/21 11:39:18;;;;;;;7.23;2.50;;;;;;;;;;5095605;28;20201;-85
2022/11/21 11:47:40;;;;;;;14.80;2.17;;;;;;;;;;5106773;28;20197;-86
2022/11/21 11:50:11;;;;;;;9.90;2.10;;;;;;;;;;5116355;28;20202;-85
2022/11/21 11:52:44;;;;;;;13.57;2.10;;;;;;;;;;5116295;28;20229;-85
2022/11/21 11:55:16;;;;;;;12.73;2.33;;;;;;;;;;5115975;28;20712;-85
2022/11/21 11:57:44;;;;;;;10.77;1.70;;;;;;;;;;5108546;28;20271;-86
2022/11/21 12:00:21;;;;;;;15.90;2.23;;;;;;;;;;5110140;28;20236;-86
2022/11/21 12:02:54;;;;;;;14.47;2.30;;;;;;;;;;5115731;28;20292;-86
2022/11/21 12:05:24;;;;;;;13.00;2.70;;;;;;;;;;5116164;28;20276;-85
2022/11/21 12:07:55;;;;;;;12.13;2.17;;;;;;;;;;5116123;28;20225;-86
2022/11/21 12:10:25;;;;;;;12.30;2.43;;;;;;;;;;5114758;28;20256;-86
2022/11/21 12:12:56;;;;;;;13.00;2.60;;;;;;;;;;5115338;27;20243;-85
2022/11/21 12:18:16;;;;;;;15.37;2.90;;;;;;;;;;5095233;28;20890;-86
2022/11/21 12:20:50;;;;;;;20.27;2.47;;;;;;;;;;5103713;28;20677;-86
2022/11/21 12:23:18;;;;;;;17.30;2.90;;;;;;;;;;5113699;28;20197;-86
2022/11/21 12:25:49;;;;;;;15.87;2.73;;;;;;;;;;5093544;28;20194;-86
2022/11/21 12:28:23;;;;;;;20.93;2.93;;;;;;;;;;5094512;28;20653;-86
2022/11/21 12:30:55;;;;;;;19.77;3.27;;;;;;;;;;5093368;28;20211;-86
2022/11/21 12:33:25;;;;;;;17.63;3.33;;;;;;;;;;5095179;28;20251;-86
2022/11/21 12:36:10;;;;;;;17.90;3.07;;;;;;;;;;5105717;28;20637;-85
2022/11/21 12:38:55;;;;;;;17.50;2.70;;;;;;;;;;5095377;28;20254;-86
2022/11/21 12:44:18;;;;;;;14.07;2.40;;;;;;;;;;5094591;28;20245;-85
2022/11/21 12:46:52;;;;;;;19.17;3.13;;;;;;;;;;5098665;28;20230;-86
2022/11/21 12:55:30;;;;;;;23.07;3.43;;;;;;;;;;5052855;28;20187;-84
2022/11/21 12:58:03;;;;;;;14.93;3.03;;;;;;;;;;5072072;28;20736;-85
2022/11/21 13:00:35;;;;;;;19.50;3.30;;;;;;;;;;5063953;28;20286;-85
2022/11/21 13:03:16;;;;;;;10.57;2.33;;;;;;;;;;5072563;28;20766;-84
2022/11/21 13:05:47;;;;;;;14.13;3.20;;;;;;;;;;5066468;28;20200;-85
2022/11/21 13:08:17;;;;;;;18.03;3.00;;;;;;;;;;5051919;28;20548;-85
2022/11/21 13:10:47;;;;;;;16.30;2.87;;;;;;;;;;5051752;28;20743;-85
2022/11/21 13:13:17;;;;;;;12.27;2.70;;;;;;;;;;5051485;28;20727;-85
2022/11/21 13:15:49;;;;;;;12.47;2.60;;;;;;;;;;5051546;28;20708;-85
2022/11/21 13:18:18;;;;;;;20.40;3.10;;;;;;;;;;5051779;28;20306;-86
2022/11/21 13:20:49;;;;;;;13.83;2.47;;;;;;;;;;5051001;28;20199;-85
2022/11/21 13:23:34;;;;;;;12.27;2.40;;;;;;;;;;5064873;28;20203;-85
2022/11/21 13:26:01;;;;;;;14.10;2.33;;;;;;;;;;5089857;28;20229;-86
2022/11/21 13:28:31;;;;;;;18.27;2.80;;;;;;;;;;5113003;28;20289;-85
2022/11/21 13:30:58;;;;;;;12.63;2.57;;;;;;;;;;5093896;28;20236;-85
2022/11/21 13:33:44;;;;;;;12.30;2.23;;;;;;;;;;5093789;28;20722;-85
2022/11/21 13:36:13;;;;;;;14.67;2.60;;;;;;;;;;5093863;28;20605;-85
2022/11/21 13:39:04;;;;;;;8.87;2.10;;;;;;;;;;5094663;28;20302;-85
2022/11/21 13:44:39;;;;;;;8.47;1.87;;;;;;;;;;5101281;28;20193;-85
2022/11/21 13:47:12;;;;;;;8.73;1.57;;;;;;;;;;5112824;28;20233;-85
2022/11/21 13:49:44;;;;;;;8.80;1.80;;;;;;;;;;5112713;28;20202;-84
2022/11/21 13:52:21;;;;;;;9.97;1.73;;;;;;;;;;5109429;28;20236;-85
2022/11/21 13:54:58;;;;;;;11.07;2.13;;;;;;;;;;5113760;28;20701;-85
2022/11/21 13:57:34;;;;;;;7.33;1.60;;;;;;;;;;5106267;28;20209;-85
2022/11/21 14:00:07;;;;;;;8.90;1.40;;;;;;;;;;5104575;28;20608;-85
2022/11/21 14:02:48;;;;;;;6.10;1.70;;;;;;;;;;5072845;28;20203;-85
2022/11/21 14:05:30;;;;;;;7.23;1.60;;;;;;;;;;5072775;28;20282;-85
2022/11/21 14:08:13;;;;;;;9.13;2.03;;;;;;;;;;5110266;28;20221;-85
2022/11/21 14:10:41;;;;;;;10.03;2.27;;;;;;;;;;5106289;28;20229;-85
2022/11/21 14:13:18;;;;;;;12.20;2.17;;;;;;;;;;5105995;28;20205;-85
2022/11/21 14:15:49;;;;;;;10.47;2.37;;;;;;;;;;5114018;28;20263;-86
2022/11/21 14:18:21;;;;;;;11.03;2.43;;;;;;;;;;5112883;28;20251;-85
2022/11/21 14:20:50;;;;;;;10.03;1.97;;;;;;;;;;5111863;28;20685;-86
2022/11/21 14:23:20;;;;;;;6.63;2.20;;;;;;;;;;5112877;28;20244;-85
2022/11/21 14:25:49;;;;;;;7.67;1.87;;;;;;;;;;5100340;28;20240;-85
2022/11/21 14:28:20;;;;;;;9.57;1.63;;;;;;;;;;5092876;28;20223;-85
2022/11/21 14:30:47;;;;;;;8.70;1.53;;;;;;;;;;5074340;28;20202;-85
2022/11/21 14:33:22;;;;;;;7.33;1.60;;;;;;;;;;5085873;28;20233;-85
2022/11/21 14:35:50;;;;;;;7.93;1.60;;;;;;;;;;5092478;28;20244;-85
2022/11/21 14:38:20;;;;;;;6.83;1.13;;;;;;;;;;5112962;28;20237;-85
2022/11/21 14:40:47;;;;;;;8.60;1.43;;;;;;;;;;5108425;28;20237;-85
2022/11/21 14:43:31;;;;;;;9.07;1.50;;;;;;;;;;5092817;28;20229;-85
2022/11/21 14:45:59;;;;;;;8.00;1.50;;;;;;;;;;5092836;28;20688;-85
2022/11/21 14:48:27;;;;;;;10.13;2.10;;;;;;;;;;5095094;28;20214;-85
2022/11/21 14:50:54;;;;;;;10.87;2.00;;;;;;;;;;5111997;28;20198;-85
2022/11/21 14:53:23;;;;;;;9.83;2.30;;;;;;;;;;5111233;28;20270;-84
2022/11/21 14:56:08;;;;;;;8.70;1.80;;;;;;;;;;5094208;28;20301;-85
2022/11/21 14:58:36;;;;;;;12.27;1.87;;;;;;;;;;5092360;28;20275;-84
2022/11/21 15:01:04;;;;;;;7.50;1.80;;;;;;;;;;5103581;28;20346;-84
2022/11/21 15:03:31;;;;;;;7.53;1.90;;;;;;;;;;5092107;28;20729;-85
2022/11/21 15:06:02;;;;;;;10.60;1.73;;;;;;;;;;5092650;28;20278;-85
2022/11/21 15:08:31;;;;;;;10.73;2.23;;;;;;;;;;5110521;28;20603;-84
2022/11/21 15:11:00;;;;;;;7.70;1.43;;;;;;;;;;5110878;28;20646;-85
2022/11/21 15:13:31;;;;;;;6.93;1.60;;;;;;;;;;5091039;28;20285;-85
2022/11/21 15:15:59;;;;;;;8.13;1.50;;;;;;;;;;5104428;28;20198;-85
2022/11/21 15:18:28;;;;;;;9.87;1.67;;;;;;;;;;5092966;28;20226;-85
2022/11/21 15:20:56;;;;;;;7.57;1.80;;;;;;;;;;5104937;28;20194;-85
2022/11/21 15:23:26;;;;;;;4.87;1.30;;;;;;;;;;5097293;28;20224;-85
2022/11/21 15:25:56;;;;;;;4.67;1.10;;;;;;;;;;5092486;28;20194;-85
2022/11/21 15:28:23;;;;;;;5.30;1.03;;;;;;;;;;5089067;28;20772;-85